sensor_id;sensor_type;location;lat;lon;timestamp;pressure;altitude;pressure_sealevel;temperature;humidity
72330;BME280;69154;52.076;5.110;2023-04-30T00:01:32;102446.19;;;7.93;34.09
72330;BME280;69154;52.076;5.110;2023-04-30T00:03:57;102445.46;;;5.78;35.41
72330;BME280;69154;52.076;5.110;2023-04-30T00:06:23;102448.82;;;6.44;35.44
72330;BME280;69154;52.076;5.110;2023-04-30T00:08:48;102446.15;;;5.56;35.74
72330;BME280;69154;52.076;5.110;2023-04-30T00:11:14;102442.85;;;6.90;34.95
72330;BME280;69154;52.076;5.110;2023-04-30T00:13:39;102441.84;;;7.18;33.87
72330;BME280;69154;52.076;5.110;2023-04-30T00:16:04;102439.25;;;7.61;33.81
72330;BME280;69154;52.076;5.110;2023-04-30T00:18:30;102436.41;;;8.07;33.74
72330;BME280;69154;52.076;5.110;2023-04-30T00:20:55;102440.06;;;7.07;33.82
72330;BME280;69154;52.076;5.110;2023-04-30T00:23:20;102441.97;;;8.84;32.80
72330;BME280;69154;52.076;5.110;2023-04-30T00:25:45;102443.64;;;9.87;30.51
72330;BME280;69154;52.076;5.110;2023-04-30T00:28:11;102442.13;;;9.79;29.95
72330;BME280;69154;52.076;5.110;2023-04-30T00:30:36;102438.55;;;9.38;29.92
72330;BME280;69154;52.076;5.110;2023-04-30T00:33:01;102446.48;;;10.12;28.94
72330;BME280;69154;52.076;5.110;2023-04-30T00:35:26;102449.29;;;10.56;28.56
72330;BME280;69154;52.076;5.110;2023-04-30T00:37:52;102450.21;;;9.83;28.99
72330;BME280;69154;52.076;5.110;2023-04-30T00:40:18;102453.70;;;10.53;28.54
72330;BME280;69154;52.076;5.110;2023-04-30T00:42:43;102459.55;;;10.72;27.95
72330;BME280;69154;52.076;5.110;2023-04-30T00:45:09;102463.11;;;11.90;27.72
72330;BME280;69154;52.076;5.110;2023-04-30T00:47:33;102466.27;;;11.47;28.61
72330;BME280;69154;52.076;5.110;2023-04-30T00:49:59;102467.71;;;9.75;29.07
72330;BME280;69154;52.076;5.110;2023-04-30T00:52:25;102464.38;;;8.97;30.77
72330;BME280;69154;52.076;5.110;2023-04-30T00:54:50;102466.59;;;8.78;31.16
72330;BME280;69154;52.076;5.110;2023-04-30T00:57:15;102464.62;;;8.87;31.65
72330;BME280;69154;52.076;5.110;2023-04-30T00:59:41;102464.66;;;8.47;31.54
72330;BME280;69154;52.076;5.110;2023-04-30T01:02:06;102467.20;;;9.26;31.70
72330;BME280;69154;52.076;5.110;2023-04-30T01:04:32;102472.13;;;9.00;31.90
72330;BME280;69154;52.076;5.110;2023-04-30T01:06:57;102470.89;;;8.32;32.51
72330;BME280;69154;52.076;5.110;2023-04-30T01:09:23;102469.36;;;7.89;33.41
72330;BME280;69154;52.076;5.110;2023-04-30T01:11:57;102472.26;;;7.10;33.72
72330;BME280;69154;52.076;5.110;2023-04-30T01:14:24;102476.81;;;5.73;36.40
72330;BME280;69154;52.076;5.110;2023-04-30T01:16:42;102478.52;;;5.77;36.41
72330;BME280;69154;52.076;5.110;2023-04-30T01:19:24;102477.77;;;6.31;35.72
72330;BME280;69154;52.076;5.110;2023-04-30T01:21:31;102476.28;;;6.72;35.55
72330;BME280;69154;52.076;5.110;2023-04-30T01:24:09;102477.72;;;5.59;36.03
72330;BME280;69154;52.076;5.110;2023-04-30T01:26:30;102474.94;;;7.13;34.70
72330;BME280;69154;52.076;5.110;2023-04-30T01:28:47;102470.47;;;7.26;33.96
72330;BME280;69154;52.076;5.110;2023-04-30T01:31:12;102463.64;;;8.22;32.71
72330;BME280;69154;52.076;5.110;2023-04-30T01:33:36;102465.32;;;8.32;32.58
72330;BME280;69154;52.076;5.110;2023-04-30T01:36:13;102468.38;;;7.96;33.43
72330;BME280;69154;52.076;5.110;2023-04-30T01:38:38;102468.48;;;8.14;33.22
72330;BME280;69154;52.076;5.110;2023-04-30T01:40:56;102463.92;;;7.41;33.16
72330;BME280;69154;52.076;5.110;2023-04-30T01:43:26;102467.01;;;7.30;33.61
72330;BME280;69154;52.076;5.110;2023-04-30T01:45:53;102474.51;;;6.56;34.70
72330;BME280;69154;52.076;5.110;2023-04-30T01:48:18;102471.42;;;8.32;32.98
72330;BME280;69154;52.076;5.110;2023-04-30T01:50:42;102476.64;;;8.82;31.86
72330;BME280;69154;52.076;5.110;2023-04-30T01:53:02;102469.99;;;8.38;32.63
72330;BME280;69154;52.076;5.110;2023-04-30T01:55:33;102472.64;;;8.59;32.76
72330;BME280;69154;52.076;5.110;2023-04-30T01:57:56;102474.16;;;6.58;34.27
72330;BME280;69154;52.076;5.110;2023-04-30T02:00:18;102476.58;;;6.46;35.22
72330;BME280;69154;52.076;5.110;2023-04-30T02:02:43;102479.04;;;6.10;35.24
72330;BME280;69154;52.076;5.110;2023-04-30T02:05:09;102480.83;;;6.32;35.46
72330;BME280;69154;52.076;5.110;2023-04-30T02:07:38;102482.92;;;7.63;34.48
72330;BME280;69154;52.076;5.110;2023-04-30T02:09:59;102482.84;;;7.76;33.53
72330;BME280;69154;52.076;5.110;2023-04-30T02:12:25;102478.48;;;7.59;33.47
72330;BME280;69154;52.076;5.110;2023-04-30T02:14:50;102480.25;;;7.63;32.65
72330;BME280;69154;52.076;5.110;2023-04-30T02:17:16;102481.24;;;7.35;33.30
72330;BME280;69154;52.076;5.110;2023-04-30T02:19:41;102482.67;;;7.95;32.40
72330;BME280;69154;52.076;5.110;2023-04-30T02:22:07;102483.70;;;7.23;33.93
72330;BME280;69154;52.076;5.110;2023-04-30T02:24:33;102491.06;;;7.07;34.43
72330;BME280;69154;52.076;5.110;2023-04-30T02:26:58;102483.63;;;7.26;33.55
72330;BME280;69154;52.076;5.110;2023-04-30T02:29:24;102485.91;;;6.93;34.29
72330;BME280;69154;52.076;5.110;2023-04-30T02:31:49;102482.64;;;6.38;34.03
72330;BME280;69154;52.076;5.110;2023-04-30T02:34:15;102478.42;;;6.96;34.73
72330;BME280;69154;52.076;5.110;2023-04-30T02:36:40;102473.24;;;6.37;34.67
72330;BME280;69154;52.076;5.110;2023-04-30T02:39:05;102472.98;;;4.86;36.67
72330;BME280;69154;52.076;5.110;2023-04-30T02:41:31;102470.58;;;5.03;37.04
72330;BME280;69154;52.076;5.110;2023-04-30T02:43:56;102470.80;;;5.06;36.51
72330;BME280;69154;52.076;5.110;2023-04-30T02:46:21;102468.32;;;5.40;36.25
72330;BME280;69154;52.076;5.110;2023-04-30T02:48:47;102466.29;;;5.85;35.58
72330;BME280;69154;52.076;5.110;2023-04-30T02:51:12;102462.39;;;5.05;37.46
72330;BME280;69154;52.076;5.110;2023-04-30T02:53:38;102468.57;;;5.35;36.16
72330;BME280;69154;52.076;5.110;2023-04-30T02:56:04;102469.06;;;5.78;35.75
72330;BME280;69154;52.076;5.110;2023-04-30T02:58:30;102469.71;;;6.40;35.31
72330;BME280;69154;52.076;5.110;2023-04-30T03:00:55;102468.48;;;5.89;35.00
72330;BME280;69154;52.076;5.110;2023-04-30T03:03:21;102467.16;;;7.30;34.40
72330;BME280;69154;52.076;5.110;2023-04-30T03:05:46;102466.73;;;6.28;34.40
72330;BME280;69154;52.076;5.110;2023-04-30T03:08:11;102468.84;;;6.10;34.98
72330;BME280;69154;52.076;5.110;2023-04-30T03:10:37;102465.49;;;6.28;35.06
72330;BME280;69154;52.076;5.110;2023-04-30T03:13:02;102468.78;;;5.32;35.69
72330;BME280;69154;52.076;5.110;2023-04-30T03:15:28;102468.40;;;5.84;36.10
72330;BME280;69154;52.076;5.110;2023-04-30T03:17:53;102464.08;;;4.03;37.32
72330;BME280;69154;52.076;5.110;2023-04-30T03:20:19;102465.98;;;6.96;34.65
72330;BME280;69154;52.076;5.110;2023-04-30T03:22:44;102467.81;;;5.78;34.98
72330;BME280;69154;52.076;5.110;2023-04-30T03:25:10;102462.48;;;4.41;37.64
72330;BME280;69154;52.076;5.110;2023-04-30T03:27:35;102464.26;;;4.66;38.33
72330;BME280;69154;52.076;5.110;2023-04-30T03:30:00;102465.84;;;3.27;40.50
72330;BME280;69154;52.076;5.110;2023-04-30T03:32:26;102462.40;;;4.82;38.96
72330;BME280;69154;52.076;5.110;2023-04-30T03:34:51;102461.67;;;3.14;39.57
72330;BME280;69154;52.076;5.110;2023-04-30T03:37:16;102461.27;;;4.81;38.65
72330;BME280;69154;52.076;5.110;2023-04-30T03:39:42;102464.33;;;4.40;38.14
72330;BME280;69154;52.076;5.110;2023-04-30T03:42:07;102463.17;;;5.98;36.76
72330;BME280;69154;52.076;5.110;2023-04-30T03:44:32;102461.27;;;3.68;40.10
72330;BME280;69154;52.076;5.110;2023-04-30T03:46:58;102454.50;;;1.92;41.89
72330;BME280;69154;52.076;5.110;2023-04-30T03:49:24;102455.25;;;3.04;41.46
72330;BME280;69154;52.076;5.110;2023-04-30T03:51:50;102455.76;;;2.21;41.67
72330;BME280;69154;52.076;5.110;2023-04-30T03:54:15;102452.48;;;4.35;39.58
72330;BME280;69154;52.076;5.110;2023-04-30T03:56:40;102454.69;;;4.82;38.40
72330;BME280;69154;52.076;5.110;2023-04-30T03:59:06;102454.45;;;5.84;36.77
72330;BME280;69154;52.076;5.110;2023-04-30T04:01:32;102450.58;;;5.64;36.83
72330;BME280;69154;52.076;5.110;2023-04-30T04:03:57;102451.68;;;6.53;35.02
72330;BME280;69154;52.076;5.110;2023-04-30T04:06:22;102452.79;;;6.19;35.30
72330;BME280;69154;52.076;5.110;2023-04-30T04:08:47;102447.53;;;4.04;37.41
72330;BME280;69154;52.076;5.110;2023-04-30T04:11:13;102447.92;;;4.94;37.95
72330;BME280;69154;52.076;5.110;2023-04-30T04:13:39;102449.62;;;4.47;37.82
72330;BME280;69154;52.076;5.110;2023-04-30T04:16:05;102452.38;;;3.78;39.91
72330;BME280;69154;52.076;5.110;2023-04-30T04:18:30;102451.30;;;3.67;40.83
72330;BME280;69154;52.076;5.110;2023-04-30T04:20:55;102454.64;;;4.49;38.84
72330;BME280;69154;52.076;5.110;2023-04-30T04:23:20;102455.85;;;5.18;37.41
72330;BME280;69154;52.076;5.110;2023-04-30T04:25:46;102464.47;;;5.69;35.71
72330;BME280;69154;52.076;5.110;2023-04-30T04:28:12;102467.92;;;6.13;35.20
72330;BME280;69154;52.076;5.110;2023-04-30T04:30:37;102463.77;;;6.41;34.41
72330;BME280;69154;52.076;5.110;2023-04-30T04:33:02;102466.28;;;6.77;33.66
72330;BME280;69154;52.076;5.110;2023-04-30T04:35:28;102467.00;;;5.95;34.59
72330;BME280;69154;52.076;5.110;2023-04-30T04:37:53;102468.34;;;6.06;34.46
72330;BME280;69154;52.076;5.110;2023-04-30T04:40:19;102470.37;;;6.91;34.41
72330;BME280;69154;52.076;5.110;2023-04-30T04:42:48;102467.19;;;5.73;34.90
72330;BME280;69154;52.076;5.110;2023-04-30T04:45:10;102471.02;;;6.12;35.03
72330;BME280;69154;52.076;5.110;2023-04-30T04:47:36;102461.73;;;5.17;36.36
72330;BME280;69154;52.076;5.110;2023-04-30T04:50:01;102455.60;;;4.86;37.37
72330;BME280;69154;52.076;5.110;2023-04-30T04:52:26;102458.72;;;5.82;36.76
72330;BME280;69154;52.076;5.110;2023-04-30T04:54:51;102460.37;;;5.44;35.75
72330;BME280;69154;52.076;5.110;2023-04-30T04:57:17;102459.18;;;6.14;35.05
72330;BME280;69154;52.076;5.110;2023-04-30T04:59:43;102457.49;;;5.65;35.42
72330;BME280;69154;52.076;5.110;2023-04-30T05:02:08;102456.98;;;6.26;34.50
72330;BME280;69154;52.076;5.110;2023-04-30T05:04:33;102458.67;;;6.13;35.00
72330;BME280;69154;52.076;5.110;2023-04-30T05:06:59;102460.83;;;6.40;35.24
72330;BME280;69154;52.076;5.110;2023-04-30T05:09:24;102464.38;;;5.75;35.60
72330;BME280;69154;52.076;5.110;2023-04-30T05:11:50;102462.12;;;4.88;35.83
72330;BME280;69154;52.076;5.110;2023-04-30T05:14:15;102464.91;;;6.25;35.82
72330;BME280;69154;52.076;5.110;2023-04-30T05:16:40;102467.67;;;5.59;35.43
72330;BME280;69154;52.076;5.110;2023-04-30T05:19:06;102469.03;;;6.35;34.79
72330;BME280;69154;52.076;5.110;2023-04-30T05:21:32;102468.58;;;7.13;34.32
72330;BME280;69154;52.076;5.110;2023-04-30T05:23:56;102467.95;;;6.96;33.52
72330;BME280;69154;52.076;5.110;2023-04-30T05:26:22;102474.18;;;5.66;36.33
72330;BME280;69154;52.076;5.110;2023-04-30T05:28:52;102477.00;;;6.12;34.91
72330;BME280;69154;52.076;5.110;2023-04-30T05:31:12;102477.94;;;6.83;34.93
72330;BME280;69154;52.076;5.110;2023-04-30T05:33:37;102475.64;;;7.30;33.78
72330;BME280;69154;52.076;5.110;2023-04-30T05:36:04;102477.78;;;6.32;34.62
72330;BME280;69154;52.076;5.110;2023-04-30T05:38:28;102471.74;;;8.62;32.46
72330;BME280;69154;52.076;5.110;2023-04-30T05:40:53;102474.45;;;10.96;29.84
72330;BME280;69154;52.076;5.110;2023-04-30T05:43:18;102474.70;;;11.13;28.80
72330;BME280;69154;52.076;5.110;2023-04-30T05:45:44;102474.22;;;9.92;29.49
72330;BME280;69154;52.076;5.110;2023-04-30T05:48:09;102475.23;;;13.23;26.74
72330;BME280;69154;52.076;5.110;2023-04-30T05:50:34;102481.13;;;16.10;25.20
72330;BME280;69154;52.076;5.110;2023-04-30T05:53:00;102483.22;;;15.55;23.52
72330;BME280;69154;52.076;5.110;2023-04-30T05:55:25;102484.35;;;12.54;25.60
72330;BME280;69154;52.076;5.110;2023-04-30T05:57:51;102488.98;;;5.54;32.55
72330;BME280;69154;52.076;5.110;2023-04-30T06:00:16;102488.38;;;8.87;31.84
72330;BME280;69154;52.076;5.110;2023-04-30T06:02:43;102483.97;;;4.52;36.67
72330;BME280;69154;52.076;5.110;2023-04-30T06:05:08;102483.77;;;8.92;32.68
72330;BME280;69154;52.076;5.110;2023-04-30T06:07:33;102485.33;;;10.70;30.24
72330;BME280;69154;52.076;5.110;2023-04-30T06:09:59;102486.48;;;7.69;31.78
72330;BME280;69154;52.076;5.110;2023-04-30T06:12:25;102485.98;;;8.65;32.31
72330;BME280;69154;52.076;5.110;2023-04-30T06:14:50;102485.14;;;7.21;32.57
72330;BME280;69154;52.076;5.110;2023-04-30T06:17:15;102487.20;;;9.65;31.07
72330;BME280;69154;52.076;5.110;2023-04-30T06:19:41;102488.11;;;9.43;31.39
72330;BME280;69154;52.076;5.110;2023-04-30T06:22:06;102490.76;;;7.06;33.94
72330;BME280;69154;52.076;5.110;2023-04-30T06:24:32;102487.87;;;8.10;32.86
72330;BME280;69154;52.076;5.110;2023-04-30T06:26:57;102489.08;;;5.74;36.02
72330;BME280;69154;52.076;5.110;2023-04-30T06:29:23;102488.15;;;6.93;35.92
72330;BME280;69154;52.076;5.110;2023-04-30T06:31:48;102489.95;;;7.03;34.29
72330;BME280;69154;52.076;5.110;2023-04-30T06:34:14;102486.55;;;7.60;34.32
72330;BME280;69154;52.076;5.110;2023-04-30T06:36:39;102491.70;;;6.38;35.92
72330;BME280;69154;52.076;5.110;2023-04-30T06:39:05;102491.86;;;7.23;35.22
72330;BME280;69154;52.076;5.110;2023-04-30T06:41:30;102495.08;;;6.84;35.02
72330;BME280;69154;52.076;5.110;2023-04-30T06:43:56;102497.55;;;7.06;34.37
72330;BME280;69154;52.076;5.110;2023-04-30T06:46:21;102495.28;;;8.42;33.92
72330;BME280;69154;52.076;5.110;2023-04-30T06:48:46;102500.43;;;8.85;32.20
72330;BME280;69154;52.076;5.110;2023-04-30T06:51:11;102503.24;;;5.33;36.58
72330;BME280;69154;52.076;5.110;2023-04-30T06:53:36;102500.15;;;9.05;34.36
72330;BME280;69154;52.076;5.110;2023-04-30T06:56:02;102507.02;;;7.47;33.69
72330;BME280;69154;52.076;5.110;2023-04-30T06:58:27;102511.82;;;7.48;34.88
72330;BME280;69154;52.076;5.110;2023-04-30T07:00:52;102515.28;;;6.98;35.02
72330;BME280;69154;52.076;5.110;2023-04-30T07:03:18;102516.59;;;7.51;35.57
72330;BME280;69154;52.076;5.110;2023-04-30T07:05:43;102514.05;;;8.34;33.69
72330;BME280;69154;52.076;5.110;2023-04-30T07:08:09;102513.83;;;8.09;33.91
72330;BME280;69154;52.076;5.110;2023-04-30T07:10:34;102510.85;;;8.14;33.39
72330;BME280;69154;52.076;5.110;2023-04-30T07:13:00;102515.58;;;6.27;36.26
72330;BME280;69154;52.076;5.110;2023-04-30T07:15:26;102510.41;;;8.54;34.15
72330;BME280;69154;52.076;5.110;2023-04-30T07:17:51;102507.55;;;9.73;31.18
72330;BME280;69154;52.076;5.110;2023-04-30T07:20:16;102507.66;;;10.73;29.63
72330;BME280;69154;52.076;5.110;2023-04-30T07:22:42;102508.99;;;9.99;30.59
72330;BME280;69154;52.076;5.110;2023-04-30T07:25:08;102512.17;;;11.22;28.96
72330;BME280;69154;52.076;5.110;2023-04-30T07:27:33;102513.63;;;11.37;28.63
72330;BME280;69154;52.076;5.110;2023-04-30T07:29:58;102511.35;;;12.61;28.13
72330;BME280;69154;52.076;5.110;2023-04-30T07:32:24;102513.72;;;11.57;28.42
72330;BME280;69154;52.076;5.110;2023-04-30T07:34:49;102505.96;;;8.73;31.19
72330;BME280;69154;52.076;5.110;2023-04-30T07:37:15;102509.26;;;11.99;28.92
72330;BME280;69154;52.076;5.110;2023-04-30T07:39:40;102503.87;;;11.93;27.72
72330;BME280;69154;52.076;5.110;2023-04-30T07:42:06;102501.51;;;10.94;28.90
72330;BME280;69154;52.076;5.110;2023-04-30T07:44:32;102499.42;;;6.64;33.35
72330;BME280;69154;52.076;5.110;2023-04-30T07:46:57;102498.76;;;10.40;30.48
72330;BME280;69154;52.076;5.110;2023-04-30T07:49:24;102494.76;;;10.24;31.03
72330;BME280;69154;52.076;5.110;2023-04-30T07:51:48;102497.51;;;10.91;30.28
72330;BME280;69154;52.076;5.110;2023-04-30T07:54:13;102497.25;;;10.76;29.95
72330;BME280;69154;52.076;5.110;2023-04-30T07:56:39;102497.64;;;9.76;31.11
72330;BME280;69154;52.076;5.110;2023-04-30T07:59:04;102498.01;;;8.12;32.09
72330;BME280;69154;52.076;5.110;2023-04-30T08:01:30;102499.40;;;10.42;30.81
72330;BME280;69154;52.076;5.110;2023-04-30T08:03:55;102501.97;;;11.55;28.96
72330;BME280;69154;52.076;5.110;2023-04-30T08:06:20;102497.78;;;10.88;29.29
72330;BME280;69154;52.076;5.110;2023-04-30T08:08:46;102501.85;;;11.56;28.17
72330;BME280;69154;52.076;5.110;2023-04-30T08:11:11;102503.26;;;10.78;29.84
72330;BME280;69154;52.076;5.110;2023-04-30T08:13:36;102505.30;;;10.57;29.38
72330;BME280;69154;52.076;5.110;2023-04-30T08:16:01;102503.30;;;8.26;32.26
72330;BME280;69154;52.076;5.110;2023-04-30T08:18:26;102502.23;;;11.69;29.45
72330;BME280;69154;52.076;5.110;2023-04-30T08:20:52;102502.79;;;11.22;28.81
72330;BME280;69154;52.076;5.110;2023-04-30T08:23:18;102501.01;;;10.19;29.25
72330;BME280;69154;52.076;5.110;2023-04-30T08:25:43;102505.44;;;9.91;28.74
72330;BME280;69154;52.076;5.110;2023-04-30T08:28:08;102503.71;;;9.29;31.40
72330;BME280;69154;52.076;5.110;2023-04-30T08:30:33;102503.30;;;10.27;30.65
72330;BME280;69154;52.076;5.110;2023-04-30T08:32:59;102504.46;;;11.23;28.85
72330;BME280;69154;52.076;5.110;2023-04-30T08:35:25;102506.66;;;11.38;28.40
72330;BME280;69154;52.076;5.110;2023-04-30T08:37:50;102500.20;;;12.92;26.55
72330;BME280;69154;52.076;5.110;2023-04-30T08:40:15;102499.61;;;14.73;24.64
72330;BME280;69154;52.076;5.110;2023-04-30T08:42:44;102497.99;;;13.52;26.08
72330;BME280;69154;52.076;5.110;2023-04-30T08:45:08;102502.55;;;12.72;26.36
72330;BME280;69154;52.076;5.110;2023-04-30T08:47:31;102499.93;;;13.08;25.85
72330;BME280;69154;52.076;5.110;2023-04-30T08:49:56;102501.98;;;13.60;25.38
72330;BME280;69154;52.076;5.110;2023-04-30T08:52:23;102506.09;;;10.10;27.97
72330;BME280;69154;52.076;5.110;2023-04-30T08:54:49;102501.68;;;6.67;33.07
72330;BME280;69154;52.076;5.110;2023-04-30T08:57:13;102502.05;;;13.15;27.86
72330;BME280;69154;52.076;5.110;2023-04-30T08:59:38;102503.30;;;10.62;28.61
72330;BME280;69154;52.076;5.110;2023-04-30T09:02:04;102504.02;;;11.54;27.54
72330;BME280;69154;52.076;5.110;2023-04-30T09:04:28;102501.38;;;11.90;29.38
72330;BME280;69154;52.076;5.110;2023-04-30T09:06:54;102493.68;;;13.12;26.93
72330;BME280;69154;52.076;5.110;2023-04-30T09:09:20;102489.98;;;13.46;25.87
72330;BME280;69154;52.076;5.110;2023-04-30T09:11:44;102495.01;;;10.36;29.01
72330;BME280;69154;52.076;5.110;2023-04-30T09:14:09;102488.42;;;12.87;27.34
72330;BME280;69154;52.076;5.110;2023-04-30T09:16:51;102488.40;;;14.73;25.37
72330;BME280;69154;52.076;5.110;2023-04-30T09:19:00;102495.35;;;11.01;27.03
72330;BME280;69154;52.076;5.110;2023-04-30T09:21:33;102490.30;;;12.74;26.63
72330;BME280;69154;52.076;5.110;2023-04-30T09:23:54;102487.84;;;11.62;27.51
72330;BME280;69154;52.076;5.110;2023-04-30T09:26:20;102484.97;;;13.69;25.82
72330;BME280;69154;52.076;5.110;2023-04-30T09:28:54;102484.53;;;12.81;25.99
72330;BME280;69154;52.076;5.110;2023-04-30T09:31:19;102482.45;;;15.18;24.30
72330;BME280;69154;52.076;5.110;2023-04-30T09:33:44;102481.25;;;14.48;24.59
72330;BME280;69154;52.076;5.110;2023-04-30T09:35:56;102475.59;;;14.42;24.29
72330;BME280;69154;52.076;5.110;2023-04-30T09:38:27;102480.30;;;13.97;25.34
72330;BME280;69154;52.076;5.110;2023-04-30T09:40:48;102479.75;;;17.46;22.69
72330;BME280;69154;52.076;5.110;2023-04-30T09:43:13;102476.64;;;21.89;19.20
72330;BME280;69154;52.076;5.110;2023-04-30T09:45:39;102473.40;;;17.71;20.16
72330;BME280;69154;52.076;5.110;2023-04-30T09:48:05;102472.07;;;20.59;19.34
72330;BME280;69154;52.076;5.110;2023-04-30T09:50:36;102467.73;;;19.92;19.67
72330;BME280;69154;52.076;5.110;2023-04-30T09:53:04;102462.25;;;19.54;20.16
72330;BME280;69154;52.076;5.110;2023-04-30T09:55:22;102464.58;;;21.86;18.84
72330;BME280;69154;52.076;5.110;2023-04-30T09:57:48;102457.33;;;22.90;17.39
72330;BME280;69154;52.076;5.110;2023-04-30T10:00:14;102460.26;;;24.20;16.69
72330;BME280;69154;52.076;5.110;2023-04-30T10:02:39;102462.91;;;16.69;20.27
72330;BME280;69154;52.076;5.110;2023-04-30T10:05:05;102459.02;;;20.96;18.46
72330;BME280;69154;52.076;5.110;2023-04-30T10:07:33;102457.94;;;18.44;20.19
72330;BME280;69154;52.076;5.110;2023-04-30T10:09:59;102455.92;;;22.43;18.05
72330;BME280;69154;52.076;5.110;2023-04-30T10:12:25;102442.77;;;27.18;15.77
72330;BME280;69154;52.076;5.110;2023-04-30T10:14:49;102444.52;;;26.93;13.94
72330;BME280;69154;52.076;5.110;2023-04-30T10:17:15;102442.11;;;24.98;14.44
72330;BME280;69154;52.076;5.110;2023-04-30T10:19:39;102437.98;;;24.09;15.36
72330;BME280;69154;52.076;5.110;2023-04-30T10:22:03;102441.57;;;21.14;17.23
72330;BME280;69154;52.076;5.110;2023-04-30T10:24:29;102437.88;;;23.60;16.21
72330;BME280;69154;52.076;5.110;2023-04-30T10:26:54;102430.00;;;25.38;15.22
72330;BME280;69154;52.076;5.110;2023-04-30T10:29:20;102428.02;;;25.97;14.64
72330;BME280;69154;52.076;5.110;2023-04-30T10:31:46;102429.91;;;23.41;15.46
72330;BME280;69154;52.076;5.110;2023-04-30T10:34:19;102427.93;;;24.15;16.14
72330;BME280;69154;52.076;5.110;2023-04-30T10:36:39;102425.22;;;21.42;17.00
72330;BME280;69154;52.076;5.110;2023-04-30T10:39:03;102424.34;;;20.77;17.64
72330;BME280;69154;52.076;5.110;2023-04-30T10:41:28;102416.96;;;19.65;18.12
72330;BME280;69154;52.076;5.110;2023-04-30T10:43:55;102420.28;;;24.08;16.06
72330;BME280;69154;52.076;5.110;2023-04-30T10:46:23;102416.25;;;23.87;15.82
72330;BME280;69154;52.076;5.110;2023-04-30T10:48:45;102421.93;;;20.18;18.02
72330;BME280;69154;52.076;5.110;2023-04-30T10:51:10;102412.69;;;28.25;13.97
72330;BME280;69154;52.076;5.110;2023-04-30T10:53:36;102403.16;;;30.15;12.38
72330;BME280;69154;52.076;5.110;2023-04-30T10:56:03;102407.05;;;25.25;14.29
72330;BME280;69154;52.076;5.110;2023-04-30T10:58:29;102402.74;;;23.60;15.43
72330;BME280;69154;52.076;5.110;2023-04-30T11:01:02;102395.97;;;28.85;13.21
72330;BME280;69154;52.076;5.110;2023-04-30T11:03:21;102388.91;;;30.92;12.20
72330;BME280;69154;52.076;5.110;2023-04-30T11:05:43;102393.15;;;25.76;13.87
72330;BME280;69154;52.076;5.110;2023-04-30T11:08:10;102387.04;;;21.99;16.29
72330;BME280;69154;52.076;5.110;2023-04-30T11:10:34;102389.27;;;20.35;18.14
72330;BME280;69154;52.076;5.110;2023-04-30T11:13:04;102380.74;;;19.91;18.58
72330;BME280;69154;52.076;5.110;2023-04-30T11:15:30;102377.47;;;22.79;17.45
72330;BME280;69154;52.076;5.110;2023-04-30T11:17:55;102378.64;;;20.27;18.25
72330;BME280;69154;52.076;5.110;2023-04-30T11:20:19;102376.96;;;22.29;17.59
72330;BME280;69154;52.076;5.110;2023-04-30T11:22:44;102370.19;;;26.25;15.35
72330;BME280;69154;52.076;5.110;2023-04-30T11:25:09;102360.22;;;28.32;13.78
72330;BME280;69154;52.076;5.110;2023-04-30T11:27:35;102359.14;;;23.17;15.32
72330;BME280;69154;52.076;5.110;2023-04-30T11:30:02;102359.77;;;23.49;15.75
72330;BME280;69154;52.076;5.110;2023-04-30T11:32:30;102354.04;;;27.60;13.72
72330;BME280;69154;52.076;5.110;2023-04-30T11:34:50;102353.17;;;26.67;12.76
72330;BME280;69154;52.076;5.110;2023-04-30T11:37:18;102348.60;;;21.46;16.56
72330;BME280;69154;52.076;5.110;2023-04-30T11:39:41;102349.51;;;26.77;13.90
72330;BME280;69154;52.076;5.110;2023-04-30T11:42:07;102349.00;;;25.49;13.70
72330;BME280;69154;52.076;5.110;2023-04-30T11:44:33;102340.48;;;26.70;14.20
72330;BME280;69154;52.076;5.110;2023-04-30T11:46:58;102336.67;;;30.07;11.95
72330;BME280;69154;52.076;5.110;2023-04-30T11:49:24;102335.61;;;31.56;10.86
72330;BME280;69154;52.076;5.110;2023-04-30T11:51:49;102326.36;;;32.42;10.00
72330;BME280;69154;52.076;5.110;2023-04-30T11:54:15;102322.85;;;33.63;10.04
72330;BME280;69154;52.076;5.110;2023-04-30T11:56:45;102316.57;;;35.61;8.72
72330;BME280;69154;52.076;5.110;2023-04-30T11:59:09;102307.79;;;34.79;9.44
72330;BME280;69154;52.076;5.110;2023-04-30T12:01:31;102307.34;;;34.04;8.91
72330;BME280;69154;52.076;5.110;2023-04-30T12:03:56;102304.08;;;33.09;9.24
72330;BME280;69154;52.076;5.110;2023-04-30T12:06:22;102307.87;;;30.52;11.20
72330;BME280;69154;52.076;5.110;2023-04-30T12:08:47;102297.86;;;32.21;10.42
72330;BME280;69154;52.076;5.110;2023-04-30T12:11:20;102297.79;;;32.66;10.83
72330;BME280;69154;52.076;5.110;2023-04-30T12:13:38;102298.15;;;35.30;9.20
72330;BME280;69154;52.076;5.110;2023-04-30T12:16:04;102295.42;;;26.74;11.67
72330;BME280;69154;52.076;5.110;2023-04-30T12:18:32;102298.97;;;23.44;14.47
72330;BME280;69154;52.076;5.110;2023-04-30T12:20:54;102293.41;;;20.82;15.81
72330;BME280;69154;52.076;5.110;2023-04-30T12:23:20;102298.11;;;18.74;18.01
72330;BME280;69154;52.076;5.110;2023-04-30T12:25:46;102292.66;;;16.91;18.73
72330;BME280;69154;52.076;5.110;2023-04-30T12:28:11;102287.16;;;17.97;18.61
72330;BME280;69154;52.076;5.110;2023-04-30T12:30:37;102284.34;;;20.80;17.49
72330;BME280;69154;52.076;5.110;2023-04-30T12:33:03;102284.14;;;22.81;16.15
72330;BME280;69154;52.076;5.110;2023-04-30T12:35:29;102285.55;;;21.48;16.17
72330;BME280;69154;52.076;5.110;2023-04-30T12:38:01;102283.00;;;21.89;15.77
72330;BME280;69154;52.076;5.110;2023-04-30T12:40:24;102282.70;;;18.37;18.12
72330;BME280;69154;52.076;5.110;2023-04-30T12:42:46;102281.68;;;20.42;17.43
72330;BME280;69154;52.076;5.110;2023-04-30T12:45:11;102280.03;;;20.37;17.32